createdAt,value
2022-09-06T00:02:19.426Z,64.00
2022-09-06T00:04:46.359Z,63.99
2022-09-06T00:07:13.178Z,64.01
2022-09-06T00:09:39.948Z,64.08
2022-09-06T00:12:06.737Z,64.15
2022-09-06T00:14:33.558Z,64.55
2022-09-06T00:17:00.970Z,64.41
2022-09-06T00:19:27.930Z,64.35
2022-09-06T00:21:54.687Z,64.28
2022-09-06T00:24:21.372Z,64.16
2022-09-06T00:26:48.037Z,64.12
2022-09-06T00:29:14.973Z,64.00
2022-09-06T00:31:41.657Z,63.83
2022-09-06T00:34:09.432Z,63.87
2022-09-06T00:36:36.291Z,63.59
2022-09-06T00:39:03.513Z,63.60
2022-09-06T00:41:30.823Z,63.40
2022-09-06T00:43:57.408Z,63.19
2022-09-06T00:46:28.241Z,63.19
2022-09-06T00:49:04.723Z,63.38
2022-09-06T00:51:34.496Z,63.27
2022-09-06T00:54:06.896Z,63.14
2022-09-06T00:56:38.212Z,63.23
2022-09-06T00:59:05.403Z,63.17
2022-09-06T01:01:32.181Z,63.09
2022-09-06T01:03:59.777Z,62.89
2022-09-06T01:06:35.091Z,62.94
2022-09-06T01:09:33.984Z,63.04
2022-09-06T01:12:08.529Z,62.81
2022-09-06T01:14:53.738Z,62.81
2022-09-06T01:17:40.143Z,62.75
2022-09-06T01:20:31.869Z,62.67
2022-09-06T01:23:13.989Z,62.68
2022-09-06T01:26:06.542Z,62.76
2022-09-06T01:28:45.987Z,62.50
2022-09-06T01:31:44.682Z,62.40
2022-09-06T01:34:51.055Z,62.42
2022-09-06T01:37:22.715Z,62.69
2022-09-06T01:39:49.481Z,62.73
2022-09-06T01:42:20.596Z,62.45
2022-09-06T01:44:53.741Z,62.45
2022-09-06T01:47:22.967Z,62.39
2022-09-06T01:50:01.686Z,62.26
2022-09-06T01:52:50.362Z,62.43
2022-09-06T01:56:05.542Z,62.55
2022-09-06T01:59:01.972Z,62.44
2022-09-06T02:01:38.083Z,62.52
2022-09-06T02:04:10.711Z,62.29
2022-09-06T02:06:49.197Z,62.29
2022-09-06T02:09:21.994Z,62.42
2022-09-06T02:12:00.566Z,62.33
2022-09-06T02:14:33.320Z,62.28
2022-09-06T02:17:02.289Z,62.29
2022-09-06T02:19:39.521Z,62.06
2022-09-06T02:22:10.174Z,61.99
2022-09-06T02:24:39.600Z,61.95
2022-09-06T02:27:06.981Z,61.88
2022-09-06T02:29:35.467Z,62.00
2022-09-06T02:32:09.947Z,62.03
2022-09-06T02:34:40.076Z,62.02
2022-09-06T02:37:07.832Z,62.15
2022-09-06T02:39:34.799Z,62.17
2022-09-06T02:42:02.584Z,62.05
2022-09-06T02:44:29.287Z,62.07
2022-09-06T02:46:57.305Z,62.02
2022-09-06T02:49:26.117Z,62.12
2022-09-06T02:51:53.058Z,62.14
2022-09-06T02:54:20.010Z,62.33
2022-09-06T02:56:51.518Z,62.33
2022-09-06T02:59:19.385Z,62.38
2022-09-06T03:01:46.224Z,62.33
2022-09-06T03:04:13.391Z,62.35
2022-09-06T03:06:40.326Z,62.38
2022-09-06T03:09:07.392Z,62.34
2022-09-06T03:11:34.144Z,62.20
2022-09-06T03:14:00.979Z,62.13
2022-09-06T03:16:27.842Z,62.14
2022-09-06T03:18:54.539Z,62.24
2022-09-06T03:21:21.309Z,62.21
2022-09-06T03:23:48.254Z,62.29
2022-09-06T03:26:15.160Z,62.26
2022-09-06T03:28:43.158Z,62.11
2022-09-06T03:31:10.405Z,62.15
2022-09-06T03:33:37.280Z,62.08
2022-09-06T03:36:07.398Z,61.90
2022-09-06T03:38:34.449Z,61.94
2022-09-06T03:41:01.259Z,61.95
2022-09-06T03:43:28.454Z,61.95
2022-09-06T03:46:00.083Z,62.02
2022-09-06T03:48:31.204Z,61.83
2022-09-06T03:51:01.237Z,61.85
2022-09-06T03:53:29.511Z,61.89
2022-09-06T03:55:58.167Z,62.05
2022-09-06T03:58:29.817Z,61.92
2022-09-06T04:01:01.427Z,61.94
2022-09-06T04:03:28.624Z,62.05
2022-09-06T04:05:55.817Z,61.97
2022-09-06T04:08:22.391Z,62.11
2022-09-06T04:10:56.510Z,62.17
2022-09-06T04:13:24.275Z,62.38
2022-09-06T04:15:51.124Z,62.40
2022-09-06T04:18:17.916Z,62.36
2022-09-06T04:20:47.802Z,62.36
2022-09-06T04:23:14.738Z,62.41
2022-09-06T04:25:41.354Z,62.22
2022-09-06T04:28:07.971Z,62.29
2022-09-06T04:31:31.741Z,62.32
2022-09-06T04:33:49.078Z,62.32
2022-09-06T04:36:16.304Z,62.25
2022-09-06T04:38:44.850Z,62.28
2022-09-06T04:41:14.047Z,62.42
2022-09-06T04:43:40.625Z,62.21
2022-09-06T04:46:21.856Z,62.44
2022-09-06T04:48:49.168Z,62.24
2022-09-06T04:51:16.080Z,62.11
2022-09-06T04:53:43.038Z,62.36
2022-09-06T04:56:21.019Z,62.16
2022-09-06T04:58:49.231Z,61.99
2022-09-06T05:01:16.779Z,61.93
2022-09-06T05:03:43.499Z,61.85
2022-09-06T05:06:19.520Z,61.82
2022-09-06T05:08:46.619Z,61.81
2022-09-06T05:11:14.013Z,61.89
2022-09-06T05:13:42.218Z,61.76
2022-09-06T05:16:09.575Z,61.67
2022-09-06T05:18:36.636Z,61.81
2022-09-06T05:21:06.265Z,61.71
2022-09-06T05:23:33.087Z,61.67
2022-09-06T05:25:59.940Z,61.63
2022-09-06T05:28:26.738Z,61.59
2022-09-06T05:30:53.865Z,61.51
2022-09-06T05:33:22.675Z,61.44
2022-09-06T05:35:49.531Z,61.37
2022-09-06T05:38:16.332Z,61.32
2022-09-06T05:40:43.464Z,61.34
2022-09-06T05:43:10.063Z,61.36
2022-09-06T05:45:38.168Z,61.32
2022-09-06T05:48:05.272Z,61.04
2022-09-06T05:50:32.314Z,60.96
2022-09-06T05:52:59.065Z,60.87
2022-09-06T05:55:26.163Z,60.81
2022-09-06T05:57:53.095Z,60.72
2022-09-06T06:00:20.340Z,60.73
2022-09-06T06:02:48.435Z,60.89
2022-09-06T06:05:16.123Z,60.81
2022-09-06T06:07:42.947Z,60.70
2022-09-06T06:10:10.324Z,60.66
2022-09-06T06:12:37.361Z,60.70
2022-09-06T06:15:05.771Z,60.65
2022-09-06T06:17:32.839Z,60.60
2022-09-06T06:19:59.767Z,60.53
2022-09-06T06:22:26.947Z,60.42
2022-09-06T06:24:53.997Z,60.30
2022-09-06T06:27:21.177Z,60.34
2022-09-06T06:29:47.952Z,60.06
2022-09-06T06:32:15.182Z,60.02
2022-09-06T06:34:42.005Z,60.07
2022-09-06T06:37:09.139Z,60.42
2022-09-06T06:39:36.019Z,60.81
2022-09-06T06:42:03.624Z,61.87
2022-09-06T06:44:30.522Z,62.37
2022-09-06T06:46:58.764Z,62.30
2022-09-06T06:49:25.440Z,62.47
2022-09-06T06:51:52.546Z,63.07
2022-09-06T06:54:19.887Z,63.85
2022-09-06T06:56:47.045Z,64.25
2022-09-06T06:59:14.479Z,64.72
2022-09-06T07:01:41.653Z,64.23
2022-09-06T07:04:10.441Z,64.69
2022-09-06T07:12:25.441Z,64.90
2022-09-06T07:14:52.443Z,64.71
2022-09-06T07:17:19.257Z,66.02
2022-09-06T07:22:33.252Z,66.73
2022-09-06T07:25:00.158Z,66.94
2022-09-06T07:30:14.373Z,67.15
2022-09-06T07:32:41.551Z,67.17
2022-09-06T07:35:08.995Z,67.32
2022-09-06T07:37:36.047Z,67.37
2022-09-06T07:40:03.724Z,67.46
2022-09-06T07:42:36.250Z,67.84
2022-09-06T07:45:04.565Z,68.17
2022-09-06T07:53:13.147Z,68.36
2022-09-06T07:55:42.866Z,68.37
2022-09-06T07:58:09.564Z,67.85
2022-09-06T08:00:38.300Z,67.78
2022-09-06T08:03:05.251Z,67.53
2022-09-06T08:11:08.947Z,66.92
2022-09-06T08:13:36.706Z,66.88
2022-09-06T08:16:09.111Z,66.95
2022-09-06T08:18:37.295Z,66.90
2022-09-06T08:21:12.968Z,66.64
2022-09-06T08:23:49.624Z,66.50
2022-09-06T08:26:17.514Z,66.37
2022-09-06T08:28:44.550Z,66.10
2022-09-06T08:31:16.324Z,65.80
2022-09-06T08:33:44.186Z,65.44
2022-09-06T08:36:11.883Z,65.01
2022-09-06T08:38:39.048Z,64.46
2022-09-06T08:41:12.065Z,63.85
2022-09-06T08:43:39.599Z,63.06
2022-09-06T08:46:09.538Z,62.56
2022-09-06T08:48:39.721Z,61.88
2022-09-06T08:51:23.569Z,61.19
2022-09-06T08:53:52.250Z,61.04
2022-09-06T08:56:28.258Z,60.49
2022-09-06T08:59:08.534Z,59.70
2022-09-06T09:02:07.449Z,59.32
2022-09-06T09:04:36.487Z,58.67
2022-09-06T09:07:23.714Z,58.21
2022-09-06T09:09:52.385Z,57.71
2022-09-06T09:12:23.417Z,57.84
2022-09-06T09:14:55.647Z,57.32
2022-09-06T09:17:29.280Z,56.61
2022-09-06T09:19:56.755Z,56.18
2022-09-06T09:22:25.378Z,54.96
2022-09-06T09:24:53.068Z,54.22
2022-09-06T09:27:25.886Z,52.76
2022-09-06T09:32:45.164Z,51.41
2022-09-06T09:35:17.212Z,51.01
2022-09-06T09:40:25.867Z,50.62
2022-09-06T09:42:55.338Z,51.16
2022-09-06T09:45:31.284Z,51.43
2022-09-06T09:48:20.232Z,51.04
2022-09-06T09:50:47.575Z,50.26
2022-09-06T09:53:16.986Z,49.15
2022-09-06T09:55:44.376Z,49.02
2022-09-06T09:58:40.300Z,48.84
2022-09-06T10:01:29.266Z,48.14
2022-09-06T10:07:10.171Z,46.95
2022-09-06T10:09:40.644Z,46.51
2022-09-06T10:12:07.751Z,45.89
2022-09-06T10:14:46.043Z,46.08
2022-09-06T10:17:22.570Z,45.52
2022-09-06T10:19:49.944Z,45.09
2022-09-06T10:22:44.692Z,45.55
2022-09-06T10:25:41.487Z,45.92
2022-09-06T10:28:31.584Z,46.34
2022-09-06T10:31:13.393Z,46.01
2022-09-06T10:34:10.017Z,46.44
2022-09-06T10:36:40.735Z,46.75
2022-09-06T10:39:30.051Z,46.36
2022-09-06T10:42:10.666Z,46.25
2022-09-06T10:44:52.529Z,46.11
2022-09-06T10:47:19.853Z,46.33
2022-09-06T10:49:53.032Z,46.18
2022-09-06T10:52:26.910Z,46.37
2022-09-06T10:54:58.080Z,45.83
2022-09-06T11:00:46.666Z,45.50
2022-09-06T11:06:28.816Z,45.01
2022-09-06T11:09:21.718Z,45.03
2022-09-06T11:11:58.002Z,44.82
2022-09-06T11:14:27.731Z,44.73
2022-09-06T11:17:05.010Z,44.87
2022-09-06T11:19:53.528Z,44.38
2022-09-06T11:22:48.327Z,43.78
2022-09-06T11:25:31.576Z,42.70
2022-09-06T11:28:00.543Z,42.58
2022-09-06T11:30:29.862Z,42.02
2022-09-06T11:33:30.437Z,42.43
2022-09-06T11:36:34.369Z,42.33
2022-09-06T11:39:03.422Z,42.27
2022-09-06T11:41:36.833Z,41.81
2022-09-06T11:44:05.150Z,41.73
2022-09-06T11:46:34.979Z,40.77
2022-09-06T11:49:29.561Z,40.33
2022-09-06T11:51:56.512Z,39.57
2022-09-06T11:54:29.698Z,39.94
2022-09-06T11:57:08.990Z,38.69
2022-09-06T11:59:41.788Z,37.95
2022-09-06T12:02:30.352Z,37.59
2022-09-06T12:05:04.617Z,36.94
2022-09-06T12:07:33.542Z,36.11
2022-09-06T12:10:42.029Z,35.61
2022-09-06T12:13:33.311Z,34.68
2022-09-06T12:16:00.557Z,33.87
2022-09-06T12:18:49.067Z,33.38
2022-09-06T12:21:34.545Z,32.36
2022-09-06T12:24:01.833Z,30.71
2022-09-06T12:26:55.516Z,30.57
2022-09-06T12:29:26.659Z,30.19
2022-09-06T12:32:04.564Z,29.49
2022-09-06T12:34:33.727Z,28.14
2022-09-06T12:37:10.539Z,27.07
2022-09-06T12:39:37.824Z,26.12
2022-09-06T12:42:07.922Z,24.60
2022-09-06T12:44:38.883Z,24.37
2022-09-06T12:47:23.728Z,23.73
2022-09-06T12:50:16.124Z,22.79
2022-09-06T12:52:47.217Z,22.85
2022-09-06T12:55:16.786Z,22.21
2022-09-06T12:57:52.671Z,21.78
2022-09-06T13:00:21.277Z,21.35
2022-09-06T13:03:00.141Z,20.54
2022-09-06T13:05:28.055Z,20.29
2022-09-06T13:07:58.665Z,20.32
2022-09-06T13:10:27.651Z,19.77
2022-09-06T13:12:57.074Z,20.07
2022-09-06T13:15:31.386Z,19.60
2022-09-06T13:18:20.284Z,19.29
2022-09-06T13:21:05.222Z,18.82
2022-09-06T13:24:03.984Z,18.24
2022-09-06T13:26:40.319Z,18.19
2022-09-06T13:29:30.782Z,17.84
2022-09-06T13:32:00.191Z,18.01
2022-09-06T13:34:33.778Z,17.75
2022-09-06T13:37:09.139Z,17.64
2022-09-06T13:39:40.306Z,17.29
2022-09-06T13:42:33.140Z,17.31
2022-09-06T13:45:23.645Z,16.52
2022-09-06T13:47:50.307Z,16.81
2022-09-06T13:50:17.014Z,16.68
2022-09-06T13:52:44.091Z,16.22
2022-09-06T13:55:16.071Z,15.71
2022-09-06T13:57:43.218Z,15.74
2022-09-06T14:00:13.813Z,15.64
2022-09-06T14:02:41.843Z,15.40
2022-09-06T14:05:09.264Z,15.24
2022-09-06T14:07:36.286Z,15.37
2022-09-06T14:10:03.197Z,15.33
2022-09-06T14:12:29.974Z,14.96
2022-09-06T14:14:56.488Z,15.11
2022-09-06T14:17:23.425Z,15.00
2022-09-06T14:19:50.866Z,14.67
2022-09-06T14:22:17.756Z,14.69
2022-09-06T14:24:44.487Z,14.55
2022-09-06T14:27:11.661Z,14.74
2022-09-06T14:29:38.613Z,14.71
2022-09-06T14:32:05.665Z,14.88
2022-09-06T14:34:32.691Z,15.06
2022-09-06T14:36:59.595Z,14.89
2022-09-06T14:39:27.553Z,14.79
2022-09-06T14:41:54.476Z,14.86
2022-09-06T14:44:21.552Z,14.50
2022-09-06T14:46:49.129Z,14.66
2022-09-06T14:49:16.511Z,14.79
2022-09-06T14:51:43.433Z,14.65
2022-09-06T14:54:12.949Z,14.88
2022-09-06T14:56:41.258Z,14.64
2022-09-06T14:59:09.576Z,15.08
2022-09-06T15:01:38.761Z,14.98
2022-09-06T15:04:07.772Z,14.94
2022-09-06T15:06:36.916Z,15.08
2022-09-06T15:09:05.574Z,15.20
2022-09-06T15:11:36.613Z,15.19
2022-09-06T15:14:05.290Z,15.25
2022-09-06T15:16:32.901Z,15.21
2022-09-06T15:19:00.175Z,15.38
2022-09-06T15:21:27.265Z,15.59
2022-09-06T15:23:54.543Z,15.85
2022-09-06T15:26:21.872Z,16.03
2022-09-06T15:28:48.993Z,16.56
2022-09-06T15:31:17.436Z,16.90
2022-09-06T15:33:44.473Z,17.13
2022-09-06T15:36:12.252Z,17.21
2022-09-06T15:38:48.100Z,17.76
2022-09-06T15:41:18.451Z,17.57
2022-09-06T15:43:49.303Z,17.57
2022-09-06T15:46:18.016Z,17.65
2022-09-06T15:48:46.851Z,17.39
2022-09-06T15:51:16.093Z,17.59
2022-09-06T15:53:43.670Z,17.40
2022-09-06T15:56:13.132Z,17.36
2022-09-06T15:58:41.137Z,17.40
2022-09-06T16:01:10.251Z,17.53
2022-09-06T16:03:39.086Z,17.68
2022-09-06T16:06:26.811Z,18.02
2022-09-06T16:09:05.649Z,17.96
2022-09-06T16:11:33.678Z,18.35
2022-09-06T16:14:00.577Z,18.60
2022-09-06T16:16:28.293Z,18.85
2022-09-06T16:18:55.422Z,19.07
2022-09-06T16:21:25.071Z,19.37
2022-09-06T16:23:56.821Z,19.63
2022-09-06T16:26:25.119Z,19.88
2022-09-06T16:28:52.770Z,20.12
2022-09-06T16:31:21.246Z,20.86
2022-09-06T16:33:49.067Z,21.23
2022-09-06T16:36:16.345Z,21.42
2022-09-06T16:38:44.149Z,21.78
2022-09-06T16:41:14.469Z,22.07
2022-09-06T16:43:41.719Z,22.14
2022-09-06T16:46:09.261Z,22.50
2022-09-06T16:48:36.204Z,22.96
2022-09-06T16:51:16.210Z,22.98
2022-09-06T16:53:45.067Z,23.39
2022-09-06T16:56:14.557Z,23.66
2022-09-06T16:58:42.132Z,24.04
2022-09-06T17:01:09.729Z,24.51
2022-09-06T17:03:37.678Z,24.90
2022-09-06T17:06:08.091Z,25.36
2022-09-06T17:08:36.387Z,25.88
2022-09-06T17:11:11.747Z,26.19
2022-09-06T17:13:38.662Z,26.66
2022-09-06T17:16:27.445Z,27.71
2022-09-06T17:18:54.379Z,28.51
2022-09-06T17:21:22.373Z,29.09
2022-09-06T17:23:49.984Z,29.81
2022-09-06T17:26:21.195Z,30.76
2022-09-06T17:28:51.431Z,31.75
2022-09-06T17:31:23.658Z,32.21
2022-09-06T17:33:53.254Z,33.03
2022-09-06T17:36:25.763Z,34.10
2022-09-06T17:38:54.053Z,34.69
2022-09-06T17:41:22.164Z,35.72
2022-09-06T17:43:48.869Z,36.56
2022-09-06T17:46:15.897Z,37.31
2022-09-06T17:48:43.545Z,37.96
2022-09-06T17:51:11.605Z,38.57
2022-09-06T17:53:38.972Z,39.30
2022-09-06T17:56:11.009Z,40.06
2022-09-06T17:58:41.421Z,40.67
2022-09-06T18:01:10.408Z,41.25
2022-09-06T18:03:39.996Z,41.97
2022-09-06T18:06:12.063Z,42.38
2022-09-06T18:08:40.855Z,42.95
2022-09-06T18:11:13.300Z,43.64
2022-09-06T18:13:41.928Z,44.17
2022-09-06T18:16:09.685Z,44.56
2022-09-06T18:18:36.533Z,45.03
2022-09-06T18:21:09.488Z,45.42
2022-09-06T18:23:36.737Z,45.89
2022-09-06T18:26:06.902Z,46.41
2022-09-06T18:28:35.796Z,46.71
2022-09-06T18:31:14.171Z,46.93
2022-09-06T18:33:42.241Z,47.62
2022-09-06T18:36:10.324Z,47.97
2022-09-06T18:38:38.571Z,48.63
2022-09-06T18:41:30.566Z,49.29
2022-09-06T18:44:02.469Z,50.05
2022-09-06T18:46:34.439Z,50.69
2022-09-06T18:49:01.781Z,51.11
2022-09-06T18:51:28.688Z,51.46
2022-09-06T18:53:56.749Z,52.04
2022-09-06T18:56:24.026Z,52.82
2022-09-06T18:58:53.741Z,53.18
2022-09-06T19:01:23.746Z,53.71
2022-09-06T19:03:50.815Z,53.86
2022-09-06T19:06:20.270Z,54.11
2022-09-06T19:08:47.654Z,54.52
2022-09-06T19:11:17.828Z,54.87
2022-09-06T19:13:45.801Z,55.08
2022-09-06T19:16:13.984Z,55.45
2022-09-06T19:18:41.810Z,55.88
2022-09-06T19:21:11.120Z,56.17
2022-09-06T19:23:40.920Z,56.23
2022-09-06T19:26:14.590Z,56.45
2022-09-06T19:28:41.386Z,56.82
2022-09-06T19:31:15.892Z,57.03
2022-09-06T19:33:44.347Z,57.13
2022-09-06T19:36:12.462Z,57.31
2022-09-06T19:39:02.126Z,57.50
2022-09-06T19:41:30.276Z,57.60
2022-09-06T19:43:58.201Z,57.91
2022-09-06T19:46:25.591Z,57.91
2022-09-06T19:48:54.120Z,57.97
2022-09-06T19:51:21.303Z,58.08
2022-09-06T19:53:50.021Z,58.26
2022-09-06T19:56:20.315Z,58.24
2022-09-06T19:58:46.901Z,58.45
2022-09-06T20:01:17.954Z,58.51
2022-09-06T20:03:44.948Z,58.60
2022-09-06T20:06:12.161Z,58.72
2022-09-06T20:08:40.110Z,58.86
2022-09-06T20:11:09.002Z,58.93
2022-09-06T20:13:37.824Z,59.09
2022-09-06T20:16:09.806Z,59.06
2022-09-06T20:18:37.741Z,59.00
2022-09-06T20:21:07.718Z,59.01
2022-09-06T20:23:35.356Z,59.09
2022-09-06T20:26:07.167Z,59.16
2022-09-06T20:28:35.065Z,59.27
2022-09-06T20:31:12.056Z,59.29
2022-09-06T20:33:39.546Z,59.23
2022-09-06T20:36:08.057Z,59.21
2022-09-06T20:38:36.852Z,59.26
2022-09-06T20:41:16.205Z,59.27
2022-09-06T20:43:43.266Z,59.34
2022-09-06T20:46:15.375Z,59.57
2022-09-06T20:48:45.098Z,59.62
2022-09-06T20:51:19.827Z,59.72
2022-09-06T20:53:57.741Z,59.94
2022-09-06T20:56:28.127Z,59.94
2022-09-06T20:58:57.068Z,60.11
2022-09-06T21:01:26.132Z,60.09
2022-09-06T21:03:55.322Z,60.05
2022-09-06T21:06:23.083Z,60.21
2022-09-06T21:08:50.589Z,60.37
2022-09-06T21:11:17.750Z,60.65
2022-09-06T21:13:47.844Z,60.74
2022-09-06T21:16:14.631Z,60.74
2022-09-06T21:18:41.549Z,60.85
2022-09-06T21:21:08.677Z,61.08
2022-09-06T21:23:39.182Z,61.09
2022-09-06T21:26:10.995Z,61.33
2022-09-06T21:28:40.001Z,61.26
2022-09-06T21:31:12.695Z,61.35
2022-09-06T21:33:41.832Z,61.44
2022-09-06T21:36:11.415Z,61.74
2022-09-06T21:38:44.363Z,61.98
2022-09-06T21:41:12.808Z,62.09
2022-09-06T21:43:40.293Z,62.42
2022-09-06T21:46:18.405Z,62.34
2022-09-06T21:48:47.071Z,62.52
2022-09-06T21:51:15.871Z,62.73
2022-09-06T21:53:44.612Z,62.75
2022-09-06T21:56:11.556Z,62.97
2022-09-06T21:58:38.626Z,63.16
2022-09-06T22:01:08.795Z,63.31
2022-09-06T22:03:39.689Z,63.35
2022-09-06T22:06:10.432Z,63.54
2022-09-06T22:08:37.337Z,63.72
2022-09-06T22:11:12.752Z,63.90
2022-09-06T22:13:40.665Z,64.10
2022-09-06T22:16:08.331Z,64.29
2022-09-06T22:18:35.986Z,64.41
2022-09-06T22:21:12.821Z,64.54
2022-09-06T22:23:40.002Z,64.88
2022-09-06T22:26:15.620Z,65.04
2022-09-06T22:28:42.415Z,65.32
2022-09-06T22:31:09.668Z,65.75
2022-09-06T22:33:37.113Z,65.60
2022-09-06T22:36:07.611Z,65.64
2022-09-06T22:38:34.881Z,66.05
2022-09-06T22:41:02.083Z,66.10
2022-09-06T22:43:28.825Z,66.32
2022-09-06T22:46:05.248Z,66.37
2022-09-06T22:48:33.226Z,66.57
2022-09-06T22:51:01.341Z,66.58
2022-09-06T22:53:29.242Z,66.86
2022-09-06T22:55:56.518Z,66.96
2022-09-06T22:58:24.488Z,67.02
2022-09-06T23:00:51.373Z,67.14
2022-09-06T23:03:18.341Z,67.15
2022-09-06T23:05:45.120Z,67.11
2022-09-06T23:08:12.158Z,67.29
2022-09-06T23:10:41.645Z,67.40
2022-09-06T23:13:09.272Z,67.39
2022-09-06T23:15:43.780Z,67.48
2022-09-06T23:18:10.794Z,67.48
2022-09-06T23:20:37.723Z,67.61
2022-09-06T23:23:06.992Z,67.68
2022-09-06T23:25:37.781Z,67.80
2022-09-06T23:28:04.642Z,67.92
2022-09-06T23:30:31.839Z,68.00
2022-09-06T23:32:58.774Z,68.16
2022-09-06T23:35:25.518Z,68.31
2022-09-06T23:37:53.426Z,68.43
2022-09-06T23:40:20.531Z,68.50
2022-09-06T23:42:47.532Z,68.59
2022-09-06T23:45:14.736Z,68.79
2022-09-06T23:47:41.614Z,68.87
2022-09-06T23:50:09.030Z,69.03
2022-09-06T23:52:35.984Z,69.34
2022-09-06T23:55:03.149Z,69.35
2022-09-06T23:57:29.867Z,69.53
2022-09-06T23:59:56.719Z,69.75
